createdAt,value
2019-05-18T00:00:18.412Z,16.95
2019-05-18T00:01:18.424Z,16.86
2019-05-18T00:02:18.415Z,16.89
2019-05-18T00:03:18.417Z,16.93
2019-05-18T00:04:18.435Z,16.96
2019-05-18T00:05:18.422Z,16.89
2019-05-18T00:06:18.450Z,16.75
2019-05-18T00:07:18.401Z,16.55
2019-05-18T00:08:18.446Z,16.48
2019-05-18T00:09:18.432Z,16.55
2019-05-18T00:10:18.421Z,16.63
2019-05-18T00:11:18.442Z,16.75
2019-05-18T00:12:18.426Z,16.93
2019-05-18T00:13:18.439Z,16.81
2019-05-18T00:14:18.407Z,16.89
2019-05-18T00:15:18.408Z,16.80
2019-05-18T00:16:18.394Z,16.83
2019-05-18T00:17:25.170Z,16.96
2019-05-18T00:18:18.509Z,16.73
2019-05-18T00:19:18.426Z,16.73
2019-05-18T00:20:18.459Z,16.85
2019-05-18T00:21:18.425Z,16.83
2019-05-18T00:22:18.434Z,16.81
2019-05-18T00:23:18.381Z,16.74
2019-05-18T00:24:18.417Z,16.71
2019-05-18T00:25:18.452Z,16.65
2019-05-18T00:26:18.423Z,16.58
2019-05-18T00:27:18.372Z,16.60
2019-05-18T00:28:18.466Z,16.30
2019-05-18T00:29:18.454Z,16.25
2019-05-18T00:30:18.413Z,16.15
2019-05-18T00:31:18.438Z,15.96
2019-05-18T00:32:18.371Z,15.89
2019-05-18T00:33:18.425Z,15.89
2019-05-18T00:34:18.414Z,15.81
2019-05-18T00:35:18.431Z,15.78
2019-05-18T00:36:18.356Z,15.81
2019-05-18T00:37:18.370Z,15.72
2019-05-18T00:38:18.462Z,15.70
2019-05-18T00:39:18.352Z,15.66
2019-05-18T00:40:18.406Z,15.68
2019-05-18T00:41:18.378Z,15.74
2019-05-18T00:42:18.403Z,15.70
2019-05-18T00:43:18.440Z,15.56
2019-05-18T00:44:18.400Z,15.56
2019-05-18T00:45:18.366Z,15.66
2019-05-18T00:46:18.411Z,15.54
2019-05-18T00:47:18.398Z,15.49
2019-05-18T00:48:18.375Z,15.45
2019-05-18T00:49:18.422Z,15.41
2019-05-18T00:50:18.410Z,15.38
2019-05-18T00:51:18.348Z,15.31
2019-05-18T00:52:18.431Z,15.27
2019-05-18T00:53:18.350Z,15.43
2019-05-18T00:54:18.377Z,15.41
2019-05-18T00:55:18.338Z,15.28
2019-05-18T00:56:18.355Z,15.39
2019-05-18T00:57:18.344Z,15.33
2019-05-18T00:58:18.328Z,15.26
2019-05-18T00:59:18.353Z,15.21
2019-05-18T01:00:18.310Z,15.15
2019-05-18T01:01:18.307Z,15.19
2019-05-18T01:02:18.355Z,15.23
2019-05-18T01:03:18.328Z,15.11
2019-05-18T01:04:18.327Z,15.13
2019-05-18T01:05:18.322Z,15.23
2019-05-18T01:06:18.312Z,15.23
2019-05-18T01:07:18.331Z,15.24
2019-05-18T01:08:18.314Z,15.31
2019-05-18T01:09:18.336Z,15.24
2019-05-18T01:10:18.296Z,15.19
2019-05-18T01:11:18.312Z,15.20
2019-05-18T01:12:18.371Z,15.13
2019-05-18T01:13:18.282Z,15.20
2019-05-18T01:14:18.281Z,15.20
2019-05-18T01:15:18.364Z,15.21
2019-05-18T01:16:18.286Z,15.17
2019-05-18T01:17:18.298Z,15.21
2019-05-18T01:18:18.325Z,15.12
2019-05-18T01:19:18.281Z,15.15
2019-05-18T01:20:18.347Z,15.09
2019-05-18T01:21:18.289Z,15.01
2019-05-18T01:22:18.336Z,14.95
2019-05-18T01:23:18.537Z,14.91
2019-05-18T01:24:18.307Z,14.94
2019-05-18T01:25:18.306Z,14.91
2019-05-18T01:26:18.287Z,14.98
2019-05-18T01:27:18.262Z,15.05
2019-05-18T01:28:18.286Z,14.93
2019-05-18T01:29:18.247Z,14.87
2019-05-18T01:30:18.320Z,14.88
2019-05-18T01:31:18.257Z,14.88
2019-05-18T01:32:18.267Z,14.87
2019-05-18T01:33:18.326Z,14.80
2019-05-18T01:34:18.235Z,14.80
2019-05-18T01:35:18.296Z,14.80
2019-05-18T01:36:18.250Z,14.75
2019-05-18T01:37:18.248Z,14.80
2019-05-18T01:38:18.254Z,14.78
2019-05-18T01:39:18.253Z,14.74
2019-05-18T01:40:18.255Z,14.75
2019-05-18T01:41:18.234Z,14.72
2019-05-18T01:42:18.251Z,14.83
2019-05-18T01:43:18.243Z,14.72
2019-05-18T01:44:18.251Z,14.60
2019-05-18T01:45:18.214Z,14.64
2019-05-18T01:46:18.212Z,14.60
2019-05-18T01:47:18.239Z,14.60
2019-05-18T01:48:18.211Z,14.57
2019-05-18T01:49:18.229Z,14.56
2019-05-18T01:50:18.205Z,14.64
2019-05-18T01:51:18.234Z,14.62
2019-05-18T01:52:18.252Z,14.71
2019-05-18T01:53:18.214Z,14.53
2019-05-18T01:54:18.247Z,14.60
2019-05-18T01:55:18.195Z,14.53
2019-05-18T01:56:18.350Z,14.57
2019-05-18T01:57:18.198Z,14.50
2019-05-18T01:58:18.210Z,14.44
2019-05-18T01:59:18.305Z,14.46
2019-05-18T02:00:18.236Z,14.39
2019-05-18T02:01:18.920Z,14.43
2019-05-18T02:02:18.887Z,14.42
2019-05-18T02:03:18.201Z,14.34
2019-05-18T02:04:18.179Z,14.38
2019-05-18T02:05:18.189Z,14.47
2019-05-18T02:06:18.160Z,14.34
2019-05-18T02:07:18.188Z,14.27
2019-05-18T02:08:18.157Z,14.25
2019-05-18T02:09:18.172Z,14.19
2019-05-18T02:10:18.155Z,14.24
2019-05-18T02:11:18.174Z,14.19
2019-05-18T02:12:18.138Z,14.31
2019-05-18T02:13:18.170Z,14.24
2019-05-18T02:14:18.156Z,14.21
2019-05-18T02:15:18.167Z,14.21
2019-05-18T02:16:18.182Z,14.24
2019-05-18T02:17:18.141Z,14.28
2019-05-18T02:18:28.814Z,14.32
2019-05-18T02:19:18.123Z,14.27
2019-05-18T02:20:18.122Z,14.24
2019-05-18T02:21:18.125Z,14.19
2019-05-18T02:22:18.154Z,14.07
2019-05-18T02:23:18.117Z,14.10
2019-05-18T02:24:18.118Z,14.07
2019-05-18T02:25:18.115Z,14.10
2019-05-18T02:26:18.141Z,14.14
2019-05-18T02:27:18.136Z,14.07
2019-05-18T02:28:18.160Z,14.12
2019-05-18T02:29:18.117Z,14.10
2019-05-18T02:30:18.122Z,14.25
2019-05-18T02:31:18.101Z,14.10
2019-05-18T02:32:18.099Z,14.27
2019-05-18T02:33:18.083Z,14.29
2019-05-18T02:34:18.094Z,14.35
2019-05-18T02:35:18.139Z,14.31
2019-05-18T02:36:18.126Z,14.24
2019-05-18T02:37:26.804Z,14.14
2019-05-18T02:39:31.627Z,14.17
2019-05-18T02:40:31.262Z,14.19
2019-05-18T02:42:16.048Z,14.07
2019-05-18T02:43:15.990Z,13.98
2019-05-18T02:44:15.961Z,13.98
2019-05-18T02:45:16.029Z,13.99
2019-05-18T02:46:15.946Z,14.04
2019-05-18T02:47:15.979Z,14.01
2019-05-18T02:48:15.945Z,13.95
2019-05-18T02:49:15.953Z,13.99
2019-05-18T02:50:15.972Z,14.04
2019-05-18T02:51:15.932Z,13.96
2019-05-18T02:52:15.916Z,13.96
2019-05-18T02:53:15.928Z,13.96
2019-05-18T02:54:15.973Z,13.95
2019-05-18T02:55:15.918Z,13.88
2019-05-18T02:56:15.943Z,13.98
2019-05-18T02:57:15.911Z,13.98
2019-05-18T02:58:15.946Z,13.98
2019-05-18T02:59:16.018Z,13.95
2019-05-18T03:00:15.930Z,14.10
2019-05-18T03:01:16.039Z,14.06
2019-05-18T03:02:15.985Z,14.04
2019-05-18T03:03:15.975Z,14.10
2019-05-18T03:04:15.956Z,14.06
2019-05-18T03:05:15.919Z,14.06
2019-05-18T03:06:15.935Z,14.10
2019-05-18T03:07:15.966Z,14.04
2019-05-18T03:08:15.943Z,14.01
2019-05-18T03:09:15.937Z,14.07
2019-05-18T03:10:15.999Z,13.98
2019-05-18T03:11:15.896Z,14.09
2019-05-18T03:12:15.882Z,13.99
2019-05-18T03:13:15.861Z,14.10
2019-05-18T03:14:15.906Z,13.95
2019-05-18T03:15:15.883Z,13.95
2019-05-18T03:16:15.861Z,14.09
2019-05-18T03:17:15.912Z,13.96
2019-05-18T03:18:15.887Z,14.02
2019-05-18T03:19:15.880Z,14.01
2019-05-18T03:20:15.854Z,13.95
2019-05-18T03:21:15.860Z,13.95
2019-05-18T03:22:15.859Z,13.96
2019-05-18T03:23:15.899Z,13.84
2019-05-18T03:24:15.871Z,13.89
2019-05-18T03:25:15.844Z,13.94
2019-05-18T03:26:15.838Z,14.21
2019-05-18T03:27:15.865Z,14.07
2019-05-18T03:28:15.823Z,13.98
2019-05-18T03:29:15.828Z,13.99
2019-05-18T03:30:15.816Z,13.89
2019-05-18T03:31:15.862Z,13.84
2019-05-18T03:32:15.810Z,13.84
2019-05-18T03:33:15.864Z,13.94
2019-05-18T03:34:15.816Z,13.88
2019-05-18T03:35:15.838Z,13.84
2019-05-18T03:36:15.821Z,13.84
2019-05-18T03:37:15.786Z,13.83
2019-05-18T03:38:15.821Z,13.83
2019-05-18T03:39:15.789Z,13.76
2019-05-18T03:40:15.845Z,13.81
2019-05-18T03:41:15.897Z,13.89
2019-05-18T03:42:15.807Z,13.88
2019-05-18T03:43:15.809Z,13.94
2019-05-18T03:44:16.037Z,13.94
2019-05-18T03:45:15.775Z,13.99
2019-05-18T03:46:15.847Z,14.14
2019-05-18T03:47:15.816Z,14.06
2019-05-18T03:48:15.819Z,14.13
2019-05-18T03:49:26.156Z,14.09
2019-05-18T03:50:15.792Z,14.09
2019-05-18T03:51:15.853Z,14.09
2019-05-18T03:52:15.796Z,14.09
2019-05-18T03:53:18.158Z,14.09
2019-05-18T03:54:15.786Z,14.12
2019-05-18T03:55:15.774Z,14.12
2019-05-18T03:56:15.770Z,14.09
2019-05-18T03:57:15.738Z,14.09
2019-05-18T03:58:15.802Z,14.07
2019-05-18T03:59:15.757Z,14.10
2019-05-18T04:00:15.754Z,14.13
2019-05-18T04:01:15.755Z,14.06
2019-05-18T04:02:15.750Z,14.17
2019-05-18T04:03:15.770Z,14.14
2019-05-18T04:04:18.472Z,14.07
2019-05-18T04:05:15.747Z,14.14
2019-05-18T04:06:15.758Z,14.20
2019-05-18T04:07:15.722Z,14.20
2019-05-18T04:08:15.794Z,14.25
2019-05-18T04:24:06.128Z,14.43
2019-05-18T04:25:05.894Z,14.37
2019-05-18T04:26:05.970Z,14.39
2019-05-18T04:27:05.673Z,14.25
2019-05-18T04:28:05.644Z,14.35
2019-05-18T04:29:05.588Z,14.28
2019-05-18T04:30:05.606Z,14.25
2019-05-18T04:31:05.529Z,14.31
2019-05-18T04:32:05.522Z,14.35
2019-05-18T04:33:05.525Z,14.49
2019-05-18T04:34:05.529Z,14.39
2019-05-18T04:35:05.520Z,14.62
2019-05-18T04:36:05.508Z,14.80
2019-05-18T04:37:05.521Z,14.71
2019-05-18T04:38:05.532Z,14.61
2019-05-18T04:39:05.524Z,14.61
2019-05-18T04:40:05.500Z,14.72
2019-05-18T04:41:05.489Z,14.84
2019-05-18T04:42:05.484Z,14.95
2019-05-18T04:43:05.480Z,15.01
2019-05-18T04:44:05.498Z,14.91
2019-05-18T04:45:05.495Z,14.90
2019-05-18T04:46:05.512Z,14.84
2019-05-18T04:47:05.498Z,14.83
2019-05-18T04:48:05.482Z,14.84
2019-05-18T04:49:05.457Z,14.61
2019-05-18T04:50:06.341Z,14.49
2019-05-18T04:51:05.446Z,14.75
2019-05-18T04:52:05.451Z,14.84
2019-05-18T04:53:05.442Z,14.72
2019-05-18T04:54:05.474Z,14.60
2019-05-18T04:55:05.476Z,14.47
2019-05-18T04:56:05.469Z,14.46
2019-05-18T04:57:05.442Z,14.64
2019-05-18T04:58:05.468Z,14.87
2019-05-18T04:59:05.455Z,14.86
2019-05-18T05:00:05.466Z,14.69
2019-05-18T05:01:05.456Z,14.69
2019-05-18T05:02:05.420Z,14.71
2019-05-18T05:03:05.414Z,14.62
2019-05-18T05:04:05.420Z,14.60
2019-05-18T05:05:05.418Z,14.62
2019-05-18T05:06:05.440Z,14.65
2019-05-18T05:07:05.430Z,14.81
2019-05-18T05:08:05.419Z,14.84
2019-05-18T05:09:05.467Z,14.67
2019-05-18T05:10:05.395Z,14.60
2019-05-18T05:11:05.397Z,14.69
2019-05-18T05:12:05.388Z,14.83
2019-05-18T05:13:05.427Z,14.91
2019-05-18T05:14:05.387Z,15.05
2019-05-18T05:15:05.412Z,15.03
2019-05-18T05:16:05.393Z,15.03
2019-05-18T05:17:05.413Z,15.08
2019-05-18T05:18:05.438Z,15.03
2019-05-18T05:19:08.567Z,15.05
2019-05-18T05:20:18.760Z,15.12
2019-05-18T05:21:05.410Z,15.23
2019-05-18T05:22:05.362Z,15.23
2019-05-18T05:23:05.405Z,14.95
2019-05-18T05:24:05.454Z,15.06
2019-05-18T05:25:05.465Z,15.12
2019-05-18T05:26:05.387Z,15.08
2019-05-18T05:27:05.364Z,14.94
2019-05-18T05:28:05.367Z,15.02
2019-05-18T05:29:05.381Z,14.91
2019-05-18T05:30:05.389Z,15.02
2019-05-18T05:31:05.385Z,15.06
2019-05-18T05:32:05.358Z,15.03
2019-05-18T05:33:05.339Z,14.98
2019-05-18T05:34:05.340Z,14.90
2019-05-18T05:35:05.358Z,14.80
2019-05-18T05:36:05.351Z,15.01
2019-05-18T05:37:05.336Z,15.11
2019-05-18T05:38:05.337Z,15.02
2019-05-18T05:39:05.352Z,15.02
2019-05-18T05:40:05.348Z,14.94
2019-05-18T05:41:05.312Z,15.03
2019-05-18T05:42:05.310Z,15.19
2019-05-18T05:43:05.319Z,15.17
2019-05-18T05:44:05.313Z,15.06
2019-05-18T05:45:05.371Z,14.86
2019-05-18T05:46:05.318Z,14.86
2019-05-18T05:47:05.326Z,14.87
2019-05-18T05:48:05.334Z,14.88
2019-05-18T05:49:05.330Z,14.91
2019-05-18T05:50:05.313Z,14.87
2019-05-18T05:51:05.364Z,14.86
2019-05-18T05:52:05.283Z,14.78
2019-05-18T05:53:05.296Z,14.88
2019-05-18T05:54:05.302Z,14.91
2019-05-18T05:55:05.299Z,14.83
2019-05-18T05:56:05.285Z,14.99
2019-05-18T05:57:05.280Z,15.12
2019-05-18T05:58:05.269Z,15.05
2019-05-18T05:59:05.277Z,15.05
2019-05-18T06:00:05.284Z,15.09
2019-05-18T06:01:05.296Z,14.98
2019-05-18T06:02:05.256Z,14.95
2019-05-18T06:03:05.257Z,14.99
2019-05-18T06:04:05.289Z,15.08
2019-05-18T06:05:05.315Z,15.20
2019-05-18T06:06:05.283Z,15.31
2019-05-18T06:07:05.255Z,15.19
2019-05-18T06:08:05.261Z,15.11
2019-05-18T06:09:05.250Z,15.05
2019-05-18T06:10:05.254Z,15.08
2019-05-18T06:11:05.270Z,15.08
2019-05-18T06:12:05.257Z,15.09
2019-05-18T06:13:05.258Z,15.12
2019-05-18T06:14:05.262Z,15.13
2019-05-18T06:15:05.288Z,15.17
2019-05-18T06:16:05.228Z,15.24
2019-05-18T06:17:08.283Z,15.24
2019-05-18T06:18:05.232Z,15.20
2019-05-18T06:19:05.256Z,15.11
2019-05-18T06:20:05.239Z,15.12
2019-05-18T06:21:05.308Z,15.19
2019-05-18T06:22:05.265Z,15.06
2019-05-18T06:23:05.239Z,15.03
2019-05-18T06:24:05.234Z,15.20
2019-05-18T06:25:05.577Z,15.27
2019-05-18T06:26:05.261Z,15.23
2019-05-18T06:27:05.203Z,15.11
2019-05-18T06:28:05.217Z,15.13
2019-05-18T06:29:05.223Z,15.30
2019-05-18T06:30:05.256Z,15.15
2019-05-18T06:31:05.214Z,15.24
2019-05-18T06:32:05.267Z,15.33
2019-05-18T06:33:05.298Z,15.26
2019-05-18T06:34:05.215Z,15.39
2019-05-18T06:35:05.212Z,15.36
2019-05-18T06:36:05.209Z,15.35
2019-05-18T06:37:05.228Z,15.46
2019-05-18T06:38:05.237Z,15.33
2019-05-18T06:39:05.184Z,15.39
2019-05-18T06:40:05.189Z,15.51
2019-05-18T06:41:05.180Z,15.49
2019-05-18T06:42:05.219Z,15.60
2019-05-18T06:43:05.206Z,15.52
2019-05-18T06:44:05.193Z,15.63
2019-05-18T06:45:05.181Z,15.51
2019-05-18T06:46:05.190Z,15.38
2019-05-18T06:47:05.189Z,15.33
2019-05-18T06:48:05.194Z,15.28
2019-05-18T06:49:05.197Z,15.28
2019-05-18T06:50:05.166Z,15.45
2019-05-18T06:51:07.458Z,15.43
2019-05-18T06:52:05.213Z,15.66
2019-05-18T06:53:05.219Z,15.70
2019-05-18T06:54:05.174Z,15.81
2019-05-18T06:55:05.155Z,15.76
2019-05-18T06:56:05.159Z,15.78
2019-05-18T06:57:05.163Z,15.88
2019-05-18T06:58:05.189Z,15.93
2019-05-18T06:59:05.153Z,16.03
2019-05-18T07:00:05.155Z,16.11
2019-05-18T07:01:05.151Z,16.04
2019-05-18T07:02:05.194Z,16.04
2019-05-18T07:03:05.182Z,15.99
2019-05-18T07:04:05.185Z,16.11
2019-05-18T07:05:05.155Z,16.04
2019-05-18T07:06:05.150Z,16.30
2019-05-18T07:07:05.170Z,16.50
2019-05-18T07:08:05.153Z,16.49
2019-05-18T07:09:05.172Z,16.48
2019-05-18T07:10:05.155Z,16.60
2019-05-18T07:11:05.195Z,16.56
2019-05-18T07:12:05.147Z,16.41
2019-05-18T07:13:05.183Z,16.42
2019-05-18T07:14:05.165Z,16.48
2019-05-18T07:15:05.218Z,16.44
2019-05-18T07:16:05.138Z,16.48
2019-05-18T07:17:05.245Z,16.41
2019-05-18T07:18:05.136Z,16.50
2019-05-18T07:19:05.150Z,16.59
2019-05-18T07:20:05.161Z,16.68
2019-05-18T07:21:05.155Z,16.62
2019-05-18T07:22:05.153Z,16.77
2019-05-18T07:23:05.176Z,16.81
2019-05-18T07:24:05.169Z,16.88
2019-05-18T07:25:05.163Z,16.95
2019-05-18T07:26:05.174Z,16.90
2019-05-18T07:27:05.176Z,16.96
2019-05-18T07:28:05.187Z,16.89
2019-05-18T07:29:05.874Z,16.95
2019-05-18T07:30:05.198Z,17.03
2019-05-18T07:31:05.193Z,17.03
2019-05-18T07:32:05.201Z,16.96
2019-05-18T07:33:05.148Z,16.99
2019-05-18T07:34:05.205Z,16.96
2019-05-18T07:35:05.159Z,16.96
2019-05-18T07:36:05.198Z,16.93
2019-05-18T07:37:05.153Z,16.95
2019-05-18T07:38:05.175Z,16.92
2019-05-18T07:39:05.243Z,16.98
2019-05-18T07:40:05.193Z,17.20
2019-05-18T07:41:05.207Z,17.03
2019-05-18T07:42:05.205Z,16.96
2019-05-18T07:43:05.207Z,17.07
2019-05-18T07:44:05.175Z,17.20
2019-05-18T07:45:05.186Z,17.20
2019-05-18T07:46:08.186Z,17.26
2019-05-18T07:47:05.193Z,17.28
2019-05-18T07:48:05.193Z,17.26
2019-05-18T07:49:05.200Z,17.32
2019-05-18T07:50:05.201Z,17.50
2019-05-18T07:51:05.191Z,17.33
2019-05-18T07:52:05.163Z,17.20
2019-05-18T07:53:05.168Z,17.35
2019-05-18T07:54:05.212Z,17.32
2019-05-18T07:55:05.183Z,17.40
2019-05-18T07:56:05.208Z,17.43
2019-05-18T07:57:05.187Z,17.35
2019-05-18T07:58:05.264Z,17.51
2019-05-18T07:59:05.205Z,17.57
2019-05-18T08:00:05.202Z,17.64
2019-05-18T08:01:05.211Z,17.81
2019-05-18T08:02:05.196Z,17.66
2019-05-18T08:03:05.206Z,17.57
2019-05-18T08:04:05.218Z,17.78
2019-05-18T08:05:05.202Z,17.71
2019-05-18T08:06:14.031Z,17.76
2019-05-18T08:08:32.516Z,17.71
2019-05-18T08:09:32.382Z,17.73
2019-05-18T08:10:32.403Z,17.70
2019-05-18T08:11:32.309Z,17.59
2019-05-18T08:12:32.317Z,17.63
2019-05-18T08:13:32.297Z,17.71
2019-05-18T08:14:32.365Z,17.73
2019-05-18T08:15:32.367Z,17.57
2019-05-18T08:16:32.244Z,17.55
2019-05-18T08:17:32.350Z,17.62
2019-05-18T08:18:32.309Z,17.53
2019-05-18T08:19:32.330Z,17.57
2019-05-18T08:20:32.344Z,17.62
2019-05-18T08:21:32.332Z,17.63
2019-05-18T08:22:32.379Z,17.64
2019-05-18T08:23:32.349Z,17.71
2019-05-18T08:24:32.296Z,17.69
2019-05-18T08:25:32.370Z,17.64
2019-05-18T08:26:32.445Z,17.76
2019-05-18T08:27:32.335Z,17.74
2019-05-18T08:28:32.320Z,17.73
2019-05-18T08:29:32.272Z,17.73
2019-05-18T08:30:32.320Z,17.76
2019-05-18T08:31:32.633Z,17.59
2019-05-18T08:32:32.362Z,17.55
2019-05-18T08:33:32.351Z,17.41
2019-05-18T08:34:32.337Z,17.55
2019-05-18T08:35:32.359Z,17.74
2019-05-18T08:36:32.350Z,17.89
2019-05-18T08:37:32.299Z,18.02
2019-05-18T08:38:32.345Z,18.12
2019-05-18T08:39:32.367Z,17.97
2019-05-18T08:40:32.500Z,18.10
2019-05-18T08:41:32.313Z,18.12
2019-05-18T08:42:32.488Z,17.84
2019-05-18T08:43:32.337Z,17.95
2019-05-18T08:44:32.408Z,17.92
2019-05-18T08:45:32.398Z,17.94
2019-05-18T08:46:32.379Z,18.03
2019-05-18T08:47:32.414Z,17.92
2019-05-18T08:48:32.393Z,18.07
2019-05-18T08:49:32.491Z,17.85
2019-05-18T08:50:32.602Z,18.03
2019-05-18T08:51:32.335Z,17.99
2019-05-18T08:52:35.055Z,18.06
2019-05-18T08:53:32.363Z,17.94
2019-05-18T08:54:32.399Z,17.89
2019-05-18T08:55:32.438Z,17.94
2019-05-18T08:56:32.384Z,17.92
2019-05-18T08:57:32.347Z,17.84
2019-05-18T08:58:32.414Z,18.00
2019-05-18T08:59:32.337Z,17.84
2019-05-18T09:00:32.372Z,17.94
2019-05-18T09:01:32.382Z,18.03
2019-05-18T09:02:32.410Z,18.06
2019-05-18T09:03:32.349Z,18.17
2019-05-18T09:04:32.352Z,18.13
2019-05-18T09:05:32.347Z,18.17
2019-05-18T09:06:32.391Z,18.15
2019-05-18T09:07:32.381Z,18.25
2019-05-18T09:08:32.368Z,18.27
2019-05-18T09:09:32.420Z,18.24
2019-05-18T09:10:32.400Z,18.27
2019-05-18T09:11:32.416Z,18.13
2019-05-18T09:12:32.350Z,18.07
2019-05-18T09:13:32.417Z,18.06
2019-05-18T09:14:32.349Z,18.06
2019-05-18T09:15:32.333Z,18.15
2019-05-18T09:16:32.345Z,18.24
2019-05-18T09:17:32.414Z,18.17
2019-05-18T09:18:32.419Z,18.10
2019-05-18T09:19:32.420Z,18.15
2019-05-18T09:20:32.552Z,18.29
2019-05-18T09:21:32.362Z,18.36
2019-05-18T09:22:32.408Z,18.29
2019-05-18T09:23:32.433Z,18.52
2019-05-18T09:24:32.502Z,18.58
2019-05-18T09:25:32.376Z,18.59
2019-05-18T09:26:32.455Z,18.55
2019-05-18T09:27:32.450Z,18.50
2019-05-18T09:28:32.590Z,18.39
2019-05-18T09:29:41.954Z,18.25
2019-05-18T09:31:37.630Z,18.31
2019-05-18T09:32:37.268Z,18.49
2019-05-18T09:33:37.094Z,18.42
2019-05-18T09:34:36.867Z,18.54
2019-05-18T09:35:36.903Z,18.58
2019-05-18T09:36:36.889Z,18.55
2019-05-18T09:37:37.041Z,18.70
2019-05-18T09:40:53.974Z,18.76
2019-05-18T09:41:53.842Z,18.76
2019-05-18T09:42:53.716Z,18.76
2019-05-18T09:43:53.782Z,18.68
2019-05-18T09:44:53.711Z,18.62
2019-05-18T09:45:53.757Z,18.54
2019-05-18T09:46:53.750Z,18.65
2019-05-18T09:47:53.778Z,18.76
2019-05-18T09:48:53.812Z,18.90
2019-05-18T09:49:53.796Z,18.95
2019-05-18T09:50:53.771Z,19.01
2019-05-18T09:51:53.823Z,18.91
2019-05-18T09:52:53.952Z,18.86
2019-05-18T09:53:53.770Z,18.87
2019-05-18T09:54:53.737Z,18.77
2019-05-18T09:55:53.789Z,18.76
2019-05-18T09:56:53.808Z,18.68
2019-05-18T09:57:54.011Z,18.57
2019-05-18T09:58:53.769Z,18.49
2019-05-18T09:59:53.769Z,18.58
2019-05-18T10:00:53.757Z,18.55
2019-05-18T10:01:53.772Z,18.47
2019-05-18T10:02:53.855Z,18.62
2019-05-18T10:03:53.794Z,18.59
2019-05-18T10:04:53.792Z,18.80
2019-05-18T10:05:53.733Z,18.90
2019-05-18T10:06:53.832Z,18.86
2019-05-18T10:07:53.781Z,18.80
2019-05-18T10:08:53.778Z,18.77
2019-05-18T10:09:54.311Z,18.80
2019-05-18T10:10:53.800Z,18.98
2019-05-18T10:11:53.824Z,18.94
2019-05-18T10:12:53.774Z,18.79
2019-05-18T10:13:53.783Z,18.70
2019-05-18T10:14:53.843Z,18.73
2019-05-18T10:15:53.784Z,18.87
2019-05-18T10:16:53.831Z,18.90
2019-05-18T10:17:53.767Z,18.91
2019-05-18T10:18:53.884Z,18.90
2019-05-18T10:19:53.863Z,18.84
2019-05-18T10:20:53.862Z,18.94
2019-05-18T10:21:53.895Z,19.14
2019-05-18T10:24:33.140Z,19.21
2019-05-18T10:25:33.107Z,19.28
2019-05-18T10:26:33.257Z,19.25
2019-05-18T10:27:33.094Z,19.13
2019-05-18T10:28:33.108Z,19.10
2019-05-18T10:29:33.089Z,19.36
2019-05-18T10:30:33.078Z,19.32
2019-05-18T10:31:33.053Z,19.28
2019-05-18T10:32:33.099Z,19.35
2019-05-18T10:33:33.128Z,19.38
2019-05-18T10:34:33.073Z,19.32
2019-05-18T10:35:33.138Z,19.29
2019-05-18T10:36:33.131Z,19.36
2019-05-18T10:37:33.202Z,19.40
2019-05-18T10:38:33.016Z,19.35
2019-05-18T10:39:33.140Z,19.40
2019-05-18T10:40:33.072Z,19.47
2019-05-18T10:41:33.163Z,19.40
2019-05-18T10:42:33.102Z,19.43
2019-05-18T10:43:33.056Z,19.51
2019-05-18T10:44:33.176Z,19.54
2019-05-18T10:45:33.250Z,19.53
2019-05-18T10:46:33.085Z,19.54
2019-05-18T10:47:33.133Z,19.54
2019-05-18T10:48:33.171Z,19.68
2019-05-18T10:49:33.079Z,19.58
2019-05-18T10:50:33.049Z,19.60
2019-05-18T10:51:33.107Z,19.63
2019-05-18T10:52:33.121Z,19.66
2019-05-18T10:53:33.113Z,19.60
2019-05-18T10:54:33.113Z,19.63
2019-05-18T10:55:33.102Z,19.70
2019-05-18T10:56:33.134Z,19.75
2019-05-18T10:57:33.094Z,19.78
2019-05-18T10:58:33.068Z,19.76
2019-05-18T10:59:33.163Z,19.69
2019-05-18T11:00:33.097Z,19.75
2019-05-18T11:01:33.097Z,19.88
2019-05-18T11:02:33.992Z,19.90
2019-05-18T11:03:33.366Z,19.76
2019-05-18T11:04:33.191Z,19.72
2019-05-18T11:05:44.603Z,19.63
2019-05-18T11:07:39.424Z,19.50
2019-05-18T11:08:38.644Z,19.57
2019-05-18T11:09:38.662Z,19.55
2019-05-18T11:10:38.903Z,19.61
2019-05-18T11:11:38.628Z,19.73
2019-05-18T11:12:38.671Z,19.86
2019-05-18T11:13:38.623Z,19.75
2019-05-18T11:14:38.642Z,19.78
